createdAt,value
2019-06-20T00:00:04.239Z,7.47
2019-06-20T00:02:35.723Z,7.00
2019-06-20T00:05:08.833Z,8.13
2019-06-20T00:07:40.049Z,8.73
2019-06-20T00:10:11.525Z,8.35
2019-06-20T00:12:59.222Z,8.48
2019-06-20T00:15:17.537Z,7.53
2019-06-20T00:17:49.341Z,7.25
2019-06-20T00:20:21.069Z,7.30
2019-06-20T00:22:52.435Z,7.53
2019-06-20T00:25:24.339Z,7.58
2019-06-20T00:27:55.920Z,7.78
2019-06-20T00:30:27.270Z,9.33
2019-06-20T00:32:58.742Z,9.43
2019-06-20T00:35:30.685Z,9.85
2019-06-20T00:38:02.247Z,6.53
2019-06-20T00:40:34.072Z,6.75
2019-06-20T00:43:16.990Z,6.17
2019-06-20T00:45:38.763Z,5.97
2019-06-20T00:48:10.157Z,6.20
2019-06-20T00:50:41.426Z,6.00
2019-06-20T00:53:12.804Z,5.15
2019-06-20T00:55:44.172Z,3.98
2019-06-20T00:58:15.787Z,3.90
2019-06-20T01:00:47.380Z,4.42
2019-06-20T01:03:18.771Z,4.03
2019-06-20T01:05:50.107Z,4.10
2019-06-20T01:08:21.566Z,4.25
2019-06-20T01:10:53.186Z,4.60
2019-06-20T01:13:33.543Z,4.80
2019-06-20T01:15:57.544Z,4.05
2019-06-20T01:18:28.899Z,4.35
2019-06-20T01:21:00.616Z,4.33
2019-06-20T01:23:32.561Z,5.72
2019-06-20T01:26:04.044Z,10.58
2019-06-20T01:28:36.014Z,4.90
2019-06-20T01:31:07.397Z,4.17
2019-06-20T01:33:38.995Z,4.67
2019-06-20T01:36:10.596Z,4.45
2019-06-20T01:38:41.946Z,4.33
2019-06-20T01:41:13.475Z,3.75
2019-06-20T01:43:50.544Z,4.70
2019-06-20T01:46:17.722Z,4.25
2019-06-20T01:48:49.394Z,4.55
2019-06-20T01:51:21.054Z,4.40
2019-06-20T01:53:53.075Z,4.60
2019-06-20T01:56:24.446Z,4.62
2019-06-20T01:58:56.081Z,5.65
2019-06-20T02:01:27.479Z,5.42
2019-06-20T02:03:58.792Z,4.75
2019-06-20T02:06:30.392Z,4.62
2019-06-20T02:09:02.377Z,4.70
2019-06-20T02:11:33.758Z,6.50
2019-06-20T02:14:07.453Z,6.20
2019-06-20T02:16:42.445Z,6.85
2019-06-20T02:19:18.162Z,4.42
2019-06-20T02:22:11.445Z,4.47
2019-06-20T02:28:13.063Z,6.28
2019-06-20T02:30:43.819Z,5.72
2019-06-20T02:33:21.850Z,5.78
2019-06-20T02:35:50.987Z,8.65
2019-06-20T02:38:26.113Z,4.78
2019-06-20T02:41:06.361Z,5.25
2019-06-20T02:43:42.069Z,4.45
2019-06-20T02:46:15.158Z,5.10
2019-06-20T02:48:48.614Z,11.90
2019-06-20T02:51:24.214Z,5.92
2019-06-20T02:54:02.537Z,4.85
2019-06-20T02:56:36.432Z,4.50
2019-06-20T02:59:10.196Z,4.20
2019-06-20T03:01:41.774Z,4.97
2019-06-20T03:04:22.053Z,3.77
2019-06-20T03:06:53.905Z,3.35
2019-06-20T03:10:18.276Z,2.90
2019-06-20T03:12:51.770Z,2.20
2019-06-20T03:19:12.720Z,3.30
2019-06-20T03:21:44.974Z,3.67
2019-06-20T03:24:16.646Z,4.65
2019-06-20T03:27:05.702Z,3.55
2019-06-20T03:29:37.194Z,3.83
2019-06-20T03:35:26.639Z,3.77
2019-06-20T03:37:58.944Z,3.10
2019-06-20T03:40:31.075Z,3.30
2019-06-20T03:43:03.212Z,3.42
2019-06-20T03:45:39.178Z,3.25
2019-06-20T03:48:10.938Z,3.12
2019-06-20T03:54:11.027Z,2.75
2019-06-20T03:56:45.217Z,2.98
2019-06-20T03:59:18.496Z,2.95
2019-06-20T04:01:54.205Z,3.15
2019-06-20T04:04:29.128Z,3.10
2019-06-20T04:10:47.344Z,3.20
2019-06-20T04:13:25.686Z,3.55
2019-06-20T04:15:54.702Z,3.20
2019-06-20T04:18:49.464Z,3.87
2019-06-20T04:21:22.119Z,3.75
2019-06-20T04:23:54.456Z,3.75
2019-06-20T04:26:25.965Z,2.98
2019-06-20T04:28:59.086Z,3.30
2019-06-20T04:31:30.014Z,3.30
2019-06-20T04:34:02.928Z,3.02
2019-06-20T04:36:34.348Z,3.42
2019-06-20T04:39:18.888Z,3.12
2019-06-20T04:41:39.765Z,3.58
2019-06-20T04:44:11.528Z,3.10
2019-06-20T04:46:44.128Z,2.95
2019-06-20T04:49:15.562Z,3.10
2019-06-20T04:51:46.843Z,3.08
2019-06-20T04:57:47.010Z,2.60
2019-06-20T05:00:19.554Z,5.97
2019-06-20T05:02:51.184Z,3.20
2019-06-20T05:05:26.783Z,2.92
2019-06-20T05:07:58.288Z,3.33
2019-06-20T05:10:29.703Z,3.15
2019-06-20T05:13:01.099Z,3.47
2019-06-20T05:15:32.533Z,2.92
2019-06-20T05:18:03.777Z,2.72
2019-06-20T05:20:54.032Z,3.05
2019-06-20T05:23:25.339Z,2.55
2019-06-20T05:25:57.099Z,2.83
2019-06-20T05:29:12.466Z,2.80
2019-06-20T05:31:43.978Z,2.60
2019-06-20T05:34:15.396Z,2.67
2019-06-20T05:37:26.067Z,2.33
2019-06-20T05:39:57.432Z,2.40
2019-06-20T05:42:28.536Z,3.08
2019-06-20T05:44:59.881Z,3.17
2019-06-20T05:47:31.672Z,2.40
2019-06-20T05:50:03.769Z,2.37
2019-06-20T05:52:35.050Z,3.17
2019-06-20T05:55:08.094Z,2.83
2019-06-20T05:57:40.167Z,2.12
2019-06-20T06:00:12.456Z,2.40
2019-06-20T06:02:43.871Z,2.50
2019-06-20T06:05:15.290Z,2.15
2019-06-20T06:07:51.748Z,2.10
2019-06-20T06:12:53.662Z,1.70
2019-06-20T06:15:24.967Z,1.85
2019-06-20T06:17:57.373Z,1.80
2019-06-20T06:20:28.715Z,1.95
2019-06-20T06:23:00.130Z,1.85
2019-06-20T06:26:00.383Z,1.92
2019-06-20T06:28:31.752Z,1.40
2019-06-20T06:31:03.070Z,1.45
2019-06-20T06:33:37.065Z,1.40
2019-06-20T06:36:08.297Z,1.55
2019-06-20T06:42:25.203Z,1.77
2019-06-20T06:44:57.989Z,1.52
2019-06-20T06:47:29.632Z,2.08
2019-06-20T06:53:30.269Z,1.98
2019-06-20T06:56:01.478Z,1.50
2019-06-20T06:58:33.009Z,1.90
2019-06-20T07:01:04.333Z,1.45
2019-06-20T07:03:36.118Z,1.60
2019-06-20T07:06:27.907Z,1.62
2019-06-20T07:08:59.291Z,1.90
2019-06-20T07:11:30.733Z,1.32
2019-06-20T07:14:06.084Z,1.60
2019-06-20T07:16:37.217Z,1.70
2019-06-20T07:19:08.969Z,1.30
2019-06-20T07:21:40.543Z,1.50
2019-06-20T07:24:15.146Z,2.85
2019-06-20T07:26:46.706Z,2.08
2019-06-20T07:29:22.749Z,2.35
2019-06-20T07:31:55.403Z,1.75
2019-06-20T07:34:26.763Z,1.52
2019-06-20T07:36:59.674Z,2.45
2019-06-20T07:39:31.445Z,2.33
2019-06-20T07:45:58.278Z,2.60
2019-06-20T07:48:16.761Z,3.00
2019-06-20T07:50:49.847Z,1.98
2019-06-20T07:53:22.029Z,1.82
2019-06-20T07:59:10.004Z,2.08
2019-06-20T08:01:42.437Z,2.00
2019-06-20T08:04:14.841Z,1.70
2019-06-20T08:06:56.778Z,1.80
2019-06-20T08:09:43.866Z,2.22
2019-06-20T08:12:10.465Z,2.08
2019-06-20T08:14:43.473Z,2.22
2019-06-20T08:17:16.616Z,2.25
2019-06-20T08:23:39.374Z,3.37
2019-06-20T08:26:12.800Z,1.62
2019-06-20T08:28:46.031Z,2.10
2019-06-20T08:31:19.908Z,2.42
2019-06-20T08:34:14.923Z,2.10
2019-06-20T08:36:49.941Z,1.95
2019-06-20T08:39:22.621Z,1.90
2019-06-20T08:45:24.399Z,2.27
2019-06-20T08:47:57.956Z,1.80
2019-06-20T08:50:29.334Z,3.08
2019-06-20T08:53:06.194Z,2.20
2019-06-20T08:55:39.586Z,2.17
2019-06-20T08:58:12.056Z,1.87
2019-06-20T09:00:46.867Z,1.70
2019-06-20T09:03:18.079Z,2.95
2019-06-20T09:05:57.103Z,3.87
2019-06-20T09:08:34.363Z,2.08
2019-06-20T09:11:14.623Z,1.87
2019-06-20T09:13:49.716Z,3.27
2019-06-20T09:16:27.541Z,1.55
2019-06-20T09:19:03.278Z,4.67
2019-06-20T09:21:40.234Z,2.00
2019-06-20T09:26:43.076Z,3.77
2019-06-20T09:32:43.240Z,3.33
2019-06-20T09:35:17.171Z,4.72
2019-06-20T09:37:48.503Z,4.15
2019-06-20T09:40:20.354Z,2.47
2019-06-20T09:46:22.981Z,2.35
2019-06-20T09:48:55.596Z,2.70
2019-06-20T09:51:28.642Z,2.83
2019-06-20T09:54:05.921Z,2.00
2019-06-20T09:56:39.773Z,3.10
2019-06-20T09:59:26.865Z,2.85
2019-06-20T10:01:51.290Z,2.62
2019-06-20T10:04:24.266Z,2.12
2019-06-20T10:07:22.503Z,3.10
2019-06-20T10:09:54.137Z,2.15
2019-06-20T10:12:25.784Z,2.35
2019-06-20T10:15:00.594Z,2.02
2019-06-20T10:17:32.224Z,2.35
2019-06-20T10:20:03.596Z,2.27
2019-06-20T10:22:35.069Z,5.33
2019-06-20T10:25:08.188Z,2.22
2019-06-20T10:27:39.559Z,2.70
2019-06-20T10:30:14.626Z,16.37
2019-06-20T10:32:48.695Z,2.70
2019-06-20T10:35:20.273Z,1.95
2019-06-20T10:37:53.087Z,2.17
2019-06-20T10:40:25.103Z,3.67
2019-06-20T10:42:58.870Z,2.70
2019-06-20T10:45:29.818Z,2.10
2019-06-20T10:48:01.267Z,3.33
2019-06-20T10:50:32.692Z,2.92
2019-06-20T10:53:09.859Z,2.52
2019-06-20T10:55:43.367Z,2.20
2019-06-20T11:01:31.954Z,2.47
2019-06-20T11:04:03.373Z,2.37
2019-06-20T11:06:37.492Z,2.70
2019-06-20T11:09:10.370Z,3.05
2019-06-20T11:11:42.973Z,3.22
2019-06-20T11:14:14.413Z,6.60
2019-06-20T11:20:16.571Z,3.87
2019-06-20T11:22:48.443Z,5.22
2019-06-20T11:25:20.409Z,6.25
2019-06-20T11:27:51.954Z,4.40
2019-06-20T11:30:25.324Z,5.10
2019-06-20T11:32:56.829Z,5.78
2019-06-20T11:35:45.779Z,9.53
2019-06-20T11:38:17.199Z,4.83
2019-06-20T11:40:49.280Z,4.50
2019-06-20T11:44:05.551Z,4.37
2019-06-20T11:46:38.483Z,5.70
2019-06-20T11:49:10.020Z,5.08
2019-06-20T11:51:48.443Z,4.60
2019-06-20T11:54:20.013Z,3.98
2019-06-20T12:00:33.427Z,11.60
2019-06-20T12:03:08.679Z,9.45
2019-06-20T12:05:41.479Z,5.03
2019-06-20T12:08:12.756Z,4.22
2019-06-20T12:10:45.340Z,3.58
2019-06-20T12:13:21.529Z,3.75
2019-06-20T12:19:20.798Z,4.65
2019-06-20T12:22:03.927Z,7.22
2019-06-20T12:24:59.783Z,12.75
2019-06-20T12:27:31.598Z,9.08
2019-06-20T12:32:49.339Z,7.65
2019-06-20T12:35:22.108Z,6.97
2019-06-20T12:37:53.556Z,6.10
2019-06-20T12:40:29.739Z,6.90
2019-06-20T12:43:01.111Z,6.97
2019-06-20T12:52:03.310Z,8.23
2019-06-20T12:58:31.634Z,8.85
2019-06-20T13:01:02.958Z,8.20
2019-06-20T13:03:40.407Z,10.03
2019-06-20T13:06:11.755Z,9.95
2019-06-20T13:08:43.622Z,9.33
2019-06-20T13:11:15.046Z,9.18
2019-06-20T13:13:46.661Z,8.85
2019-06-20T13:16:18.076Z,8.08
2019-06-20T13:18:50.384Z,7.37
2019-06-20T13:21:23.609Z,7.12
2019-06-20T13:23:54.966Z,7.37
2019-06-20T13:26:26.427Z,7.40
2019-06-20T13:29:04.016Z,9.28
2019-06-20T13:31:49.975Z,10.05
2019-06-20T13:34:09.527Z,8.50
2019-06-20T13:36:42.824Z,9.48
2019-06-20T13:39:31.859Z,8.95
2019-06-20T13:42:03.853Z,8.55
2019-06-20T13:44:35.181Z,9.25
2019-06-20T13:50:34.381Z,8.18
2019-06-20T13:53:06.068Z,7.75
2019-06-20T13:55:37.397Z,8.13
2019-06-20T13:58:08.875Z,7.60
2019-06-20T14:00:42.941Z,7.60
2019-06-20T14:03:13.291Z,9.90
2019-06-20T14:05:49.852Z,9.25
2019-06-20T14:08:23.988Z,9.15
2019-06-20T14:11:48.496Z,9.03
2019-06-20T14:14:26.864Z,9.40
2019-06-20T14:17:12.021Z,9.18
2019-06-20T14:19:58.359Z,9.08
2019-06-20T14:22:45.130Z,8.63
2019-06-20T14:25:16.280Z,9.33
2019-06-20T14:27:54.763Z,9.70
2019-06-20T14:30:29.061Z,9.70
2019-06-20T14:33:02.652Z,9.70
2019-06-20T14:36:14.126Z,9.73
2019-06-20T14:39:02.775Z,9.38
2019-06-20T14:41:33.916Z,8.70
2019-06-20T14:44:30.461Z,8.90
2019-06-20T14:47:02.250Z,8.43
2019-06-20T14:49:33.531Z,10.43
2019-06-20T14:52:25.266Z,9.13
2019-06-20T14:54:56.686Z,9.38
2019-06-20T14:57:27.843Z,15.95
2019-06-20T14:59:59.327Z,11.28
2019-06-20T15:02:38.376Z,8.90
2019-06-20T15:05:03.775Z,10.10
2019-06-20T15:11:32.272Z,9.13
2019-06-20T15:14:14.931Z,8.70
2019-06-20T15:16:47.990Z,9.25
2019-06-20T15:26:28.756Z,14.13
2019-06-20T15:28:59.955Z,10.72
2019-06-20T15:31:31.300Z,9.25
2019-06-20T15:34:02.934Z,9.08
2019-06-20T15:36:44.230Z,9.55
2019-06-20T15:42:45.123Z,8.63
2019-06-20T15:45:18.473Z,9.13
2019-06-20T15:47:50.035Z,8.83
2019-06-20T15:50:29.677Z,9.05
2019-06-20T15:52:58.478Z,8.73
2019-06-20T15:55:29.878Z,8.33
2019-06-20T15:58:02.286Z,9.45
2019-06-20T16:00:35.875Z,18.60
2019-06-20T16:03:35.777Z,10.00
2019-06-20T16:06:08.090Z,8.53
2019-06-20T16:08:39.616Z,8.38
2019-06-20T16:11:28.637Z,8.53
2019-06-20T16:14:00.093Z,8.00
2019-06-20T16:16:31.820Z,8.55
2019-06-20T16:19:03.362Z,8.50
2019-06-20T16:21:34.904Z,9.13
2019-06-20T16:24:06.726Z,8.23
2019-06-20T16:26:38.011Z,8.18
2019-06-20T16:29:09.317Z,8.25
2019-06-20T16:31:40.767Z,7.62
2019-06-20T16:34:12.053Z,8.15
2019-06-20T16:40:13.813Z,7.90
2019-06-20T16:42:45.242Z,8.68
2019-06-20T16:45:17.038Z,8.68
2019-06-20T16:51:16.954Z,8.03
2019-06-20T16:53:48.624Z,7.53
2019-06-20T16:56:20.392Z,8.28
2019-06-20T16:58:52.154Z,8.28
2019-06-20T17:01:23.562Z,8.43
2019-06-20T17:10:52.467Z,8.20
2019-06-20T17:13:24.047Z,8.55
2019-06-20T17:15:55.703Z,9.60
2019-06-20T17:18:27.052Z,8.63
2019-06-20T17:20:59.515Z,8.55
2019-06-20T17:23:31.062Z,7.72
2019-06-20T17:26:02.424Z,8.90
2019-06-20T17:28:34.310Z,7.78
2019-06-20T17:31:06.680Z,8.30
2019-06-20T17:33:38.093Z,7.15
2019-06-20T17:36:18.398Z,7.80
2019-06-20T17:38:42.532Z,7.67
2019-06-20T17:41:14.306Z,7.20
2019-06-20T17:43:48.644Z,7.20
2019-06-20T17:47:15.768Z,6.53
2019-06-20T17:49:47.584Z,6.67
2019-06-20T17:52:21.875Z,6.80
2019-06-20T17:54:56.082Z,6.85
2019-06-20T17:57:27.448Z,6.62
2019-06-20T17:59:58.804Z,6.20
2019-06-20T18:02:32.786Z,6.60
2019-06-20T18:05:04.086Z,5.28
2019-06-20T18:11:18.776Z,6.60
2019-06-20T18:13:50.212Z,5.90
2019-06-20T18:16:25.323Z,6.03
2019-06-20T18:18:54.881Z,6.42
2019-06-20T18:21:27.392Z,6.22
2019-06-20T18:23:58.910Z,6.08
2019-06-20T18:26:30.684Z,6.10
2019-06-20T18:29:02.468Z,6.22
2019-06-20T18:31:34.119Z,5.92
2019-06-20T18:34:05.857Z,5.62
2019-06-20T18:36:37.196Z,5.40
2019-06-20T18:39:12.425Z,6.10
2019-06-20T18:41:42.907Z,5.80
2019-06-20T18:44:14.238Z,5.53
2019-06-20T18:46:45.778Z,5.53
2019-06-20T18:49:17.407Z,5.80
2019-06-20T18:51:48.841Z,5.90
2019-06-20T18:55:13.079Z,6.53
2019-06-20T18:57:48.915Z,6.10
2019-06-20T19:00:33.557Z,6.25
2019-06-20T19:02:52.881Z,6.55
2019-06-20T19:05:24.448Z,6.58
2019-06-20T19:07:56.962Z,6.72
2019-06-20T19:10:50.473Z,6.58
2019-06-20T19:13:21.854Z,7.17
2019-06-20T19:15:53.099Z,6.47
2019-06-20T19:18:24.498Z,7.12
2019-06-20T19:20:55.943Z,7.35
2019-06-20T19:23:29.178Z,7.80
2019-06-20T19:26:00.803Z,8.33
2019-06-20T19:28:32.142Z,8.03
2019-06-20T19:31:03.678Z,8.28
2019-06-20T19:36:39.786Z,7.83
2019-06-20T19:39:11.272Z,7.80
2019-06-20T19:41:42.760Z,8.35
2019-06-20T19:44:14.374Z,8.85
2019-06-20T19:46:45.664Z,9.15
2019-06-20T19:49:16.954Z,9.25
2019-06-20T19:51:48.383Z,9.65
2019-06-20T19:54:20.024Z,9.70
2019-06-20T19:57:44.101Z,10.15
2019-06-20T20:00:16.904Z,9.35
2019-06-20T20:02:48.432Z,9.58
2019-06-20T20:05:20.183Z,8.93
2019-06-20T20:07:51.586Z,9.13
2019-06-20T20:10:25.054Z,10.45
2019-06-20T20:12:56.723Z,9.60
2019-06-20T20:15:28.118Z,9.60
2019-06-20T20:17:59.358Z,9.90
2019-06-20T20:20:30.800Z,9.75
2019-06-20T20:23:02.347Z,9.73
2019-06-20T20:25:33.822Z,9.33
2019-06-20T20:28:05.374Z,9.38
2019-06-20T20:30:36.842Z,9.13
2019-06-20T20:33:08.587Z,8.93
2019-06-20T20:35:40.126Z,9.03
2019-06-20T20:38:11.485Z,8.50
2019-06-20T20:40:42.857Z,9.50
2019-06-20T20:43:14.189Z,8.28
2019-06-20T20:45:45.801Z,8.63
2019-06-20T20:48:17.129Z,9.35
2019-06-20T20:50:48.605Z,8.28
2019-06-20T20:56:48.949Z,8.13
2019-06-20T20:59:20.392Z,8.28
2019-06-20T21:05:19.966Z,8.23
2019-06-20T21:07:51.573Z,8.45
2019-06-20T21:10:23.731Z,7.85
2019-06-20T21:16:23.118Z,8.13
2019-06-20T21:18:54.381Z,8.40
2019-06-20T21:21:26.780Z,8.20
2019-06-20T21:23:58.225Z,8.38
2019-06-20T21:26:29.651Z,7.53
2019-06-20T21:29:00.954Z,7.87
2019-06-20T21:31:32.429Z,7.72
2019-06-20T21:34:04.042Z,6.87
2019-06-20T21:36:35.453Z,7.75
2019-06-20T21:39:09.035Z,7.20
2019-06-20T21:41:40.572Z,9.10
2019-06-20T21:44:29.350Z,9.35
2019-06-20T21:47:00.765Z,8.13
2019-06-20T21:49:33.144Z,7.53
2019-06-20T21:52:04.789Z,5.70
2019-06-20T21:54:56.654Z,6.75
2019-06-20T21:57:28.081Z,6.80
2019-06-20T21:59:59.411Z,6.20
2019-06-20T22:02:31.049Z,5.87
2019-06-20T22:05:02.634Z,6.15
2019-06-20T22:07:34.070Z,5.65
2019-06-20T22:10:06.583Z,5.45
2019-06-20T22:16:06.522Z,5.35
2019-06-20T22:18:37.976Z,5.67
2019-06-20T22:21:09.534Z,4.92
2019-06-20T22:23:40.854Z,5.22
2019-06-20T22:26:12.239Z,5.53
2019-06-20T22:28:43.804Z,5.60
2019-06-20T22:31:15.406Z,5.87
2019-06-20T22:33:47.080Z,5.53
2019-06-20T22:36:18.522Z,6.08
2019-06-20T22:38:49.962Z,5.87
2019-06-20T22:41:21.523Z,6.03
2019-06-20T22:43:52.822Z,5.45
2019-06-20T22:46:27.117Z,5.40
2019-06-20T22:48:58.836Z,6.00
2019-06-20T22:52:04.792Z,7.10
2019-06-20T22:57:51.173Z,10.32
2019-06-20T23:00:23.040Z,10.58
2019-06-20T23:02:54.560Z,9.53
2019-06-20T23:05:26.223Z,8.53
2019-06-20T23:07:57.552Z,6.45
2019-06-20T23:10:28.815Z,5.75
2019-06-20T23:13:00.379Z,6.25
2019-06-20T23:19:12.334Z,6.42
2019-06-20T23:21:43.857Z,6.53
2019-06-20T23:24:15.223Z,7.47
2019-06-20T23:26:46.400Z,8.10
2019-06-20T23:29:19.242Z,8.45
2019-06-20T23:35:19.476Z,8.88
2019-06-20T23:37:50.902Z,8.73
2019-06-20T23:40:25.551Z,7.67
2019-06-20T23:43:02.291Z,7.75
2019-06-20T23:45:36.288Z,7.72
2019-06-20T23:48:26.950Z,5.50
2019-06-20T23:50:47.109Z,5.97
2019-06-20T23:53:20.740Z,6.12
2019-06-20T23:55:52.109Z,6.00
2019-06-20T23:58:24.402Z,5.35
